Time;durP1;ratioP1;P1;durP2;ratioP2;P2;SDS_P1;SDS_P2;PMS_P1;PMS_P2;Temp;Humidity;BMP_temperature;BMP_pressure;BME280_temperature;BME280_humidity;BME280_pressure;Samples;Min_cycle;Max_cycle;Signal;HPM_P1;HPM_P2
2022/08/27 00:00:37;;;;;;;18.23;10.55;;;16.60;1.00;;;17.61;78.12;99316.94;5025860;28;115087;-71
2022/08/27 00:03:06;;;;;;;18.42;10.63;;;16.50;1.00;;;17.46;78.44;99325.25;5020936;28;129792;-72
2022/08/27 00:05:35;;;;;;;18.20;10.35;;;16.40;1.00;;;17.35;79.34;99319.56;5021978;28;129711;-71
2022/08/27 00:08:04;;;;;;;15.25;9.60;;;16.40;1.00;;;17.33;79.52;99316.41;4996300;28;118203;-72
2022/08/27 00:10:33;;;;;;;16.42;9.90;;;16.40;1.00;;;17.33;80.23;99310.91;5003008;28;115381;-72
2022/08/27 00:13:02;;;;;;;16.23;10.10;;;16.40;1.00;;;17.34;80.35;99313.28;5002271;28;130677;-71
2022/08/27 00:15:32;;;;;;;17.45;10.48;;;16.40;1.00;;;17.37;80.14;99309.03;5002183;28;129340;-72
2022/08/27 00:18:02;;;;;;;17.98;11.20;;;16.30;1.00;;;17.35;80.20;99305.84;5002320;28;119088;-72
2022/08/27 00:20:30;;;;;;;13.18;9.95;;;16.30;1.00;;;17.35;80.06;99311.34;5002441;28;116084;-71
2022/08/27 00:22:59;;;;;;;15.77;10.60;;;16.30;1.00;;;17.34;79.89;99317.97;5004163;28;129584;-72
2022/08/27 00:25:29;;;;;;;22.85;10.63;;;16.20;1.00;;;17.28;80.45;99312.00;5001651;28;129545;-73
2022/08/27 00:27:58;;;;;;;19.80;11.23;;;16.20;1.00;;;17.21;80.58;99309.88;5002234;28;119793;-72
2022/08/27 00:30:27;;;;;;;18.75;10.77;;;16.20;1.00;;;17.12;81.21;99309.31;5002248;28;115810;-73
2022/08/27 00:32:56;;;;;;;16.27;10.55;;;16.10;1.00;;;17.07;81.84;99317.81;5002054;28;129963;-72
2022/08/27 00:35:26;;;;;;;16.90;11.43;;;16.10;1.00;;;17.02;82.45;99309.88;5001988;28;129914;-72
2022/08/27 00:37:55;;;;;;;18.02;10.50;;;16.10;1.00;;;17.05;82.31;99311.91;5002108;28;119415;-71
2022/08/27 00:40:24;;;;;;;20.65;11.73;;;16.10;1.00;;;17.00;82.56;99307.50;5001067;28;115901;-72
2022/08/27 00:42:53;;;;;;;23.02;11.80;;;16.10;1.00;;;16.94;82.58;99316.34;5001450;28;129938;-71
2022/08/27 00:45:24;;;;;;;19.85;10.57;;;16.10;1.00;;;16.91;82.86;99311.59;5003472;28;129159;-71
2022/08/27 00:47:56;;;;;;;17.83;11.68;;;16.00;1.00;;;16.88;82.52;99313.91;5001800;28;118840;-73
2022/08/27 00:50:35;;;;;;;17.00;11.18;;;16.00;1.00;;;16.87;82.47;99312.31;5001849;28;115705;-71
2022/08/27 00:53:11;;;;;;;16.60;11.35;;;16.00;1.00;;;16.85;82.73;99314.59;5001411;28;129957;-72
2022/08/27 00:55:47;;;;;;;17.42;11.05;;;16.00;1.00;;;16.76;82.98;99310.47;5003577;28;129403;-74
2022/08/27 00:58:19;;;;;;;;;;;15.90;1.00;;;16.64;83.92;99314.91;5002039;28;118774;-71
2022/08/27 01:00:49;;;;;;;20.25;11.75;;;15.90;1.00;;;16.65;83.54;99315.69;5017830;28;114669;-71
2022/08/27 01:03:18;;;;;;;18.73;11.52;;;15.90;1.00;;;16.72;83.20;99313.13;5019816;28;128929;-71
2022/08/27 01:05:50;;;;;;;19.05;10.63;;;15.90;1.00;;;16.73;83.04;99311.97;5001189;28;129658;-71
2022/08/27 01:08:25;;;;;;;15.27;10.32;;;15.90;1.00;;;16.65;83.77;99321.97;5020290;28;118517;-71
2022/08/27 01:10:57;;;;;;;17.40;10.10;;;15.80;1.00;;;16.60;83.96;99318.72;5001494;28;115934;-72
2022/08/27 01:13:30;;;;;;;17.55;10.60;;;15.80;1.00;;;16.62;83.91;99316.41;5003053;28;130146;-72
2022/08/27 01:16:00;;;;;;;17.38;10.65;;;15.70;1.00;;;16.65;83.66;99321.19;5001121;28;130024;-71
2022/08/27 01:18:33;;;;;;;18.42;10.75;;;15.70;1.00;;;16.67;83.56;99314.22;5001324;28;119091;-72
2022/08/27 01:21:10;;;;;;;18.05;11.23;;;15.60;1.00;;;16.61;83.90;99314.81;5003604;28;115827;-73
2022/08/27 01:23:51;;;;;;;18.92;11.82;;;15.60;1.00;;;16.49;84.70;99319.25;5001362;28;130731;-72
2022/08/27 01:26:22;;;;;;;16.55;11.25;;;15.60;2.80;;;16.46;85.08;99319.97;5000861;28;130089;-72
2022/08/27 01:28:52;;;;;;;18.70;11.00;;;15.60;4.10;;;16.51;84.59;99324.38;5001395;28;119666;-71
2022/08/27 01:31:21;;;;;;;15.07;10.85;;;15.50;8.10;;;16.50;84.71;99320.84;5000124;28;116112;-72
2022/08/27 01:34:00;;;;;;;16.05;11.50;;;15.50;8.50;;;16.49;85.25;99322.00;5000698;28;130380;-72
2022/08/27 01:36:30;;;;;;;19.92;12.15;;;15.50;13.00;;;16.45;85.35;99323.06;5001909;28;129145;-71
2022/08/27 01:38:59;;;;;;;15.27;10.93;;;15.50;12.20;;;16.38;85.75;99318.22;5001149;28;119413;-71
2022/08/27 01:41:29;;;;;;;20.10;11.75;;;15.50;13.10;;;16.33;85.99;99319.28;5003160;28;116306;-71
2022/08/27 01:43:58;;;;;;;17.77;10.82;;;15.40;12.90;;;16.26;86.51;99327.31;5000541;28;130025;-71
2022/08/27 01:46:28;;;;;;;19.02;11.82;;;15.40;16.20;;;16.24;86.99;99323.34;5002506;28;129719;-72
2022/08/27 01:48:57;;;;;;;16.58;11.05;;;15.40;20.60;;;16.29;86.61;99309.38;5001148;28;118759;-71
2022/08/27 01:51:25;;;;;;;17.35;11.98;;;15.30;25.20;;;16.29;86.65;99315.66;5001003;28;116106;-71
2022/08/27 01:53:54;;;;;;;17.15;11.55;;;15.30;26.60;;;16.32;86.37;99319.63;5000464;28;129963;-71
2022/08/27 01:56:24;;;;;;;16.83;11.07;;;15.30;26.70;;;16.28;86.95;99314.09;5000594;28;129577;-70
2022/08/27 01:58:54;;;;;;;21.02;12.48;;;15.30;33.00;;;16.27;86.84;99325.38;5002585;28;119170;-70
2022/08/27 02:01:23;;;;;;;17.63;11.52;;;15.30;33.00;;;16.20;87.12;99317.00;5000913;28;116572;-71
2022/08/27 02:03:51;;;;;;;17.90;11.70;;;15.20;32.80;;;16.17;87.33;99319.28;5000377;28;130321;-71
2022/08/27 02:06:20;;;;;;;15.85;10.77;;;15.20;33.10;;;16.16;87.77;99316.91;5000174;28;129466;-71
2022/08/27 02:08:48;;;;;;;16.65;12.00;;;15.20;38.10;;;16.17;87.45;99313.81;5000889;28;118894;-71
2022/08/27 02:11:17;;;;;;;19.40;13.18;;;15.20;39.40;;;16.11;87.55;99320.72;5000753;28;115843;-71
2022/08/27 02:13:45;;;;;;;19.13;12.40;;;15.10;38.40;;;16.08;87.70;99321.41;5000014;28;130425;-71
2022/08/27 02:16:15;;;;;;;21.65;12.93;;;15.10;40.30;;;16.02;88.41;99322.00;4998888;28;129255;-71
2022/08/27 02:18:43;;;;;;;19.77;12.15;;;15.10;45.90;;;15.92;89.12;99323.31;5000700;28;118746;-72
2022/08/27 02:21:14;;;;;;;18.55;12.98;;;15.10;46.50;;;15.91;89.03;99321.72;5000761;28;116367;-72
2022/08/27 02:23:43;;;;;;;22.70;13.85;;;15.00;48.80;;;15.94;88.60;99323.75;5000220;28;130195;-72
2022/08/27 02:26:12;;;;;;;18.75;12.57;;;15.00;52.90;;;15.95;88.71;99322.63;5002128;28;128545;-72
2022/08/27 02:28:41;;;;;;;18.50;12.63;;;15.00;53.90;;;15.95;88.61;99322.63;5000618;28;118573;-71
2022/08/27 02:31:10;;;;;;;21.58;13.02;;;15.00;54.00;;;15.94;89.07;99321.03;5000691;28;116148;-70
2022/08/27 02:33:40;;;;;;;18.90;12.82;;;15.00;61.80;;;15.94;89.06;99326.50;5000210;28;130951;-71
2022/08/27 02:36:09;;;;;;;20.33;12.60;;;15.00;56.90;;;15.97;88.40;99323.06;5000218;28;130054;-72
2022/08/27 02:38:38;;;;;;;21.98;12.98;;;14.90;55.90;;;15.97;88.53;99320.31;5000391;28;118543;-72
2022/08/27 02:41:07;;;;;;;24.02;14.15;;;14.90;59.90;;;15.92;88.60;99326.84;5000250;28;116039;-72
2022/08/27 02:43:36;;;;;;;19.92;13.85;;;14.90;61.10;;;15.81;89.15;99323.84;4999996;28;130453;-70
2022/08/27 02:46:04;;;;;;;19.80;12.73;;;14.80;61.00;;;15.74;89.86;99318.16;4999935;28;130028;-71
2022/08/27 02:48:36;;;;;;;19.08;12.25;;;14.80;65.80;;;15.71;89.99;99321.59;5002042;28;119388;-74
2022/08/27 02:51:07;;;;;;;16.02;11.65;;;14.80;72.50;;;15.73;90.36;99332.19;5003989;28;116543;-70
2022/08/27 02:53:37;;;;;;;16.75;11.57;;;14.80;74.20;;;15.76;89.99;99326.81;5005204;28;128849;-70
2022/08/27 02:56:07;;;;;;;19.25;12.85;;;14.80;73.30;;;15.75;90.01;99324.41;5003279;28;129405;-72
2022/08/27 02:58:36;;;;;;;21.52;12.77;;;14.80;77.80;;;15.69;90.86;99323.91;5003866;28;118808;-72
2022/08/27 03:01:05;;;;;;;16.08;12.60;;;14.80;82.20;;;15.71;90.93;99327.06;5005728;28;114816;-71
2022/08/27 03:03:34;;;;;;;17.17;12.57;;;14.80;84.40;;;15.69;nan;99307.47;5003078;28;130364;-72
2022/08/27 03:06:02;;;;;;;18.98;12.77;;;14.80;84.40;;;15.63;91.22;99319.81;5005231;28;128757;-72
2022/08/27 03:08:32;;;;;;;17.42;11.95;;;14.80;79.00;;;15.61;91.29;99319.34;5003616;28;119321;-72
2022/08/27 03:11:01;;;;;;;17.45;12.05;;;14.80;82.10;;;15.62;91.35;99307.28;5003738;28;116198;-72
2022/08/27 03:13:30;;;;;;;16.92;12.25;;;14.70;85.80;;;15.66;91.17;99305.44;5003081;28;130042;-71
2022/08/27 03:15:59;;;;;;;23.80;13.70;;;14.70;89.70;;;15.63;91.34;99311.63;5003019;28;129726;-71
2022/08/27 03:18:26;;;;;;;20.75;13.82;;;14.70;91.70;;;15.58;91.80;99315.41;5003388;28;118835;-71
2022/08/27 03:20:58;;;;;;;18.52;12.07;;;14.70;91.70;;;15.61;91.89;99305.69;5003158;28;115995;-70
2022/08/27 03:23:31;;;;;;;18.70;12.15;;;14.70;91.70;;;15.64;91.72;99318.66;5018286;28;130496;-71
2022/08/27 03:26:05;;;;;;;20.63;13.50;;;14.70;91.70;;;15.70;91.69;99320.00;5001630;28;129920;-71
2022/08/27 03:28:35;;;;;;;17.48;13.00;;;14.80;91.70;;;15.73;91.61;99316.56;5005373;28;118909;-71
2022/08/27 03:31:07;;;;;;;19.38;12.68;;;14.80;91.70;;;15.76;91.68;99310.38;5003442;28;115667;-72
2022/08/27 03:33:38;;;;;;;21.63;13.30;;;14.90;91.70;;;15.82;91.64;99319.97;5004171;28;130057;-74
2022/08/27 03:36:08;;;;;;;19.73;12.90;;;15.00;91.80;;;15.87;91.43;99323.59;5001907;28;129563;-72
2022/08/27 03:38:38;;;;;;;19.25;13.32;;;15.00;87.90;;;15.98;91.07;99327.41;5020061;28;120240;-71
2022/08/27 03:41:08;;;;;;;19.42;12.63;;;15.10;88.20;;;16.08;90.59;99318.66;5021465;28;116791;-71
2022/08/27 03:43:37;;;;;;;19.48;11.63;;;15.10;84.20;;;16.21;89.84;99318.59;5022322;28;129980;-70
2022/08/27 03:46:07;;;;;;;23.65;12.73;;;15.20;77.30;;;16.31;88.91;99320.78;5022295;28;129724;-71
2022/08/27 03:48:37;;;;;;;17.63;13.00;;;15.20;74.00;;;16.31;88.75;99320.78;5022248;28;119204;-71
2022/08/27 03:51:09;;;;;;;19.20;12.45;;;15.20;72.80;;;16.28;89.30;99310.53;5022402;28;116057;-72
2022/08/27 03:53:41;;;;;;;17.63;11.88;;;15.30;72.00;;;16.39;88.76;99311.56;5022259;28;130868;-71
2022/08/27 03:56:11;;;;;;;19.90;13.25;;;15.40;68.50;;;16.52;88.54;99312.28;5022135;28;129607;-72
2022/08/27 03:58:40;;;;;;;19.00;12.60;;;15.40;67.40;;;16.61;87.85;99314.81;5021556;28;118353;-72
2022/08/27 04:01:09;;;;;;;20.45;14.07;;;15.50;63.60;;;16.66;87.26;99306.34;5020982;28;115799;-71
2022/08/27 04:03:39;;;;;;;19.13;12.80;;;15.60;60.60;;;16.82;86.93;99309.03;5024179;28;129110;-74
2022/08/27 04:06:08;;;;;;;18.58;12.55;;;15.60;56.50;;;16.92;86.40;99304.97;5022185;28;130119;-72
2022/08/27 04:08:36;;;;;;;20.10;12.68;;;15.70;50.30;;;17.05;85.42;99295.47;5023639;28;117710;-71
2022/08/27 04:11:07;;;;;;;21.13;12.98;;;15.80;43.20;;;17.12;84.87;99289.31;5022095;28;115923;-72
2022/08/27 04:13:37;;;;;;;18.20;12.77;;;15.90;38.40;;;17.15;84.69;99294.88;5021952;28;130239;-71
2022/08/27 04:16:07;;;;;;;24.88;13.52;;;15.90;33.50;;;17.20;84.80;99291.06;5022251;28;129076;-72
2022/08/27 04:18:35;;;;;;;21.98;13.50;;;16.00;33.70;;;17.35;83.71;99289.41;5022781;28;119427;-75
2022/08/27 04:21:10;;;;;;;17.63;12.50;;;16.20;25.00;;;17.45;83.36;99286.06;5005922;28;115277;-72
2022/08/27 04:23:38;;;;;;;17.55;12.85;;;16.30;20.00;;;17.56;83.14;99289.81;5022516;28;131292;-72
2022/08/27 04:26:09;;;;;;;23.63;12.60;;;16.40;17.70;;;17.61;82.81;99277.75;5024152;28;128916;-73
2022/08/27 04:28:39;;;;;;;20.08;12.40;;;16.50;11.50;;;17.73;81.99;99276.75;5021037;28;118806;-72
2022/08/27 04:31:09;;;;;;;15.05;11.68;;;16.60;8.10;;;17.87;81.58;99285.28;5022482;28;116959;-74
2022/08/27 04:33:38;;;;;;;18.45;12.68;;;16.80;1.30;;;18.04;80.77;99273.00;5021641;28;129832;-73
2022/08/27 04:36:09;;;;;;;17.38;12.23;;;17.00;1.00;;;18.17;80.50;99270.88;5021850;28;129465;-73
2022/08/27 04:38:38;;;;;;;16.90;11.75;;;17.10;1.00;;;18.28;80.08;99266.34;5022466;28;120101;-72
2022/08/27 04:41:22;;;;;;;16.27;12.18;;;17.30;1.00;;;18.46;79.74;99265.81;5021641;28;115917;-72
2022/08/27 04:43:55;;;;;;;16.45;11.98;;;17.40;1.00;;;18.61;79.09;99262.09;5021961;28;131149;-72
2022/08/27 04:46:25;;;;;;;17.35;12.23;;;17.60;1.00;;;18.76;78.84;99265.84;5021390;28;129536;-71
2022/08/27 04:48:56;;;;;;;19.45;12.13;;;17.80;1.00;;;18.90;78.28;99258.97;5021976;28;118942;-72
2022/08/27 04:51:26;;;;;;;17.92;12.18;;;17.90;1.00;;;18.95;78.31;99264.16;5024163;28;114902;-71
2022/08/27 04:53:55;;;;;;;16.63;11.48;;;18.00;1.00;;;19.15;77.21;99264.75;5023434;28;129045;-72
2022/08/27 04:56:24;;;;;;;17.67;12.20;;;18.20;1.00;;;19.29;76.65;99267.72;5021243;28;130349;-71
2022/08/27 04:58:55;;;;;;;16.27;11.98;;;18.30;1.00;;;19.42;76.20;99256.44;5022036;28;119765;-71
2022/08/27 05:01:26;;;;;;;17.25;11.95;;;18.40;1.00;;;19.61;75.54;99260.94;5022311;28;116075;-71
2022/08/27 05:03:55;;;;;;;16.20;11.98;;;18.50;1.00;;;19.64;75.29;99254.69;5023685;28;129384;-71
2022/08/27 05:06:24;;;;;;;15.60;11.32;;;18.60;1.00;;;19.74;74.63;99271.31;5020579;28;129485;-74
2022/08/27 05:08:53;;;;;;;16.20;11.07;;;18.70;1.00;;;19.86;75.04;99273.00;5021667;28;119867;-71
2022/08/27 05:11:27;;;;;;;17.15;11.43;;;18.80;1.00;;;19.90;75.19;99268.34;5020629;28;115970;-72
2022/08/27 05:13:57;;;;;;;18.20;11.82;;;18.80;1.00;;;20.04;74.42;99267.66;5021024;28;129965;-71
2022/08/27 05:16:26;;;;;;;24.17;12.18;;;19.00;1.00;;;20.35;73.55;99265.53;5021108;28;129082;-72
2022/08/27 05:18:55;;;;;;;17.77;11.95;;;19.20;1.00;;;20.58;72.93;99261.72;5021533;28;118825;-71
2022/08/27 05:21:26;;;;;;;16.52;11.63;;;19.40;1.00;;;20.61;72.08;99266.47;5021737;28;115968;-71
2022/08/27 05:23:58;;;;;;;16.90;11.35;;;19.30;1.00;;;20.64;72.13;99266.50;5021119;28;129866;-70
2022/08/27 05:26:28;;;;;;;17.45;12.30;;;19.40;1.00;;;20.56;72.43;99264.09;5021075;28;130043;-72
2022/08/27 05:28:59;;;;;;;23.70;12.35;;;19.40;1.00;;;20.80;72.38;99268.19;5021637;28;118888;-72
2022/08/27 05:31:29;;;;;;;18.63;11.95;;;19.60;1.00;;;21.09;71.27;99262.81;5023326;28;115174;-75
2022/08/27 05:33:57;;;;;;;19.50;11.95;;;19.80;1.00;;;21.30;70.65;99262.06;5021096;28;130517;-70
2022/08/27 05:36:29;;;;;;;19.83;12.10;;;20.00;1.00;;;21.35;69.78;99264.47;5021066;28;129416;-77
2022/08/27 05:39:00;;;;;;;16.92;12.07;;;20.00;1.00;;;21.51;69.24;99267.69;5021687;28;119126;-72
2022/08/27 05:41:32;;;;;;;17.83;11.23;;;20.10;1.00;;;21.80;68.54;99273.25;5021235;28;115844;-72
2022/08/27 05:44:05;;;;;;;19.88;11.40;;;20.40;1.00;;;21.92;67.75;99268.53;5020951;28;131040;-73
2022/08/27 05:46:35;;;;;;;18.90;12.70;;;20.60;1.00;;;22.04;66.95;99270.91;5021006;28;129968;-73
2022/08/27 05:49:03;;;;;;;17.90;10.90;;;20.70;1.00;;;22.25;66.54;99270.09;5021535;28;119115;-75
2022/08/27 05:51:35;;;;;;;16.02;11.25;;;21.00;1.00;;;22.49;64.53;99267.75;5021120;28;115871;-72
2022/08/27 05:54:07;;;;;;;16.58;10.75;;;21.20;1.00;;;22.59;64.54;99262.19;5020641;28;130561;-74
2022/08/27 05:56:38;;;;;;;17.75;11.23;;;21.40;1.00;;;22.92;64.07;99264.84;5020800;28;129524;-74
2022/08/27 06:01:57;;;;;;;21.15;12.70;;;21.90;1.00;;;23.33;60.70;99259.53;5021206;28;116132;-71
2022/08/27 06:04:26;;;;;;;19.05;12.32;;;22.00;1.00;;;23.54;59.24;99255.06;5020475;28;129995;-75
2022/08/27 06:06:55;;;;;;;17.10;12.05;;;22.20;1.00;;;23.78;58.41;99255.28;5020693;28;129765;-71
2022/08/27 06:09:28;;;;;;;24.27;13.50;;;22.40;1.00;;;23.93;58.75;99258.78;5021047;28;118974;-72
2022/08/27 06:11:58;;;;;;;15.93;11.00;;;22.60;1.00;;;23.92;59.13;99255.25;5021145;28;115945;-71
2022/08/27 06:14:29;;;;;;;19.02;12.32;;;22.50;1.00;;;23.94;59.42;99258.38;5020579;28;129860;-70
2022/08/27 06:17:00;;;;;;;15.85;11.02;;;22.70;1.00;;;23.92;58.08;99266.31;5020265;28;129426;-72
2022/08/27 06:19:29;;;;;;;15.63;10.90;;;22.70;1.00;;;24.05;57.82;99256.28;5021453;28;118962;-71
2022/08/27 06:21:59;;;;;;;17.13;12.13;;;22.80;1.00;;;24.13;56.49;99262.56;5021963;28;115861;-72
2022/08/27 06:24:27;;;;;;;15.77;11.32;;;22.90;1.00;;;24.40;56.02;99257.19;5024111;28;129775;-72
2022/08/27 06:26:56;;;;;;;14.82;10.88;;;23.10;1.00;;;24.63;53.89;99260.53;5023783;28;129549;-73
2022/08/27 06:29:24;;;;;;;14.85;11.25;;;23.30;1.00;;;24.74;53.66;99258.44;5023972;28;118913;-71
2022/08/27 06:31:55;;;;;;;23.98;11.43;;;23.40;1.00;;;24.89;53.87;99261.84;5024098;28;116570;-72
2022/08/27 06:34:24;;;;;;;17.85;11.38;;;23.60;1.00;;;24.86;52.73;99259.91;5023631;28;130268;-73
2022/08/27 06:36:53;;;;;;;13.80;9.93;;;23.60;1.00;;;24.97;52.56;99255.00;5025588;28;128805;-70
2022/08/27 06:39:22;;;;;;;17.38;11.57;;;23.70;1.00;;;25.22;51.23;99253.88;5024469;28;119489;-72
2022/08/27 06:41:50;;;;;;;13.88;10.63;;;23.80;1.00;;;25.42;50.89;99252.03;5024220;28;116044;-72
2022/08/27 06:44:23;;;;;;;18.17;11.38;;;24.00;1.00;;;25.62;49.55;99254.16;5025565;28;129763;-73
2022/08/27 06:46:54;;;;;;;14.88;11.02;;;24.20;1.00;;;25.76;48.99;99248.38;5023247;28;129478;-70
2022/08/27 06:49:23;;;;;;;15.73;10.70;;;24.30;1.00;;;25.88;49.66;99251.75;5023345;28;119179;-72
2022/08/27 06:51:52;;;;;;;17.90;10.48;;;24.40;1.00;;;26.11;48.38;99251.78;5022817;28;115773;-74
2022/08/27 06:54:21;;;;;;;17.17;10.88;;;24.60;1.00;;;26.14;48.23;99241.81;5023370;28;129837;-72
2022/08/27 06:56:50;;;;;;;15.63;10.35;;;24.70;1.00;;;25.98;47.85;99240.50;5023203;28;130431;-70
2022/08/27 06:59:20;;;;;;;15.63;10.25;;;24.60;1.00;;;25.90;47.92;99235.44;5025697;28;118167;-70
2022/08/27 07:01:50;;;;;;;16.98;10.25;;;24.60;1.00;;;26.09;47.05;99237.53;5023822;28;115989;-72
2022/08/27 07:04:25;;;;;;;15.25;9.70;;;24.80;1.00;;;26.51;47.01;99240.75;5023245;28;130704;-72
2022/08/27 07:06:54;;;;;;;17.38;10.48;;;25.10;1.00;;;26.77;46.85;99241.09;5023584;28;129311;-71
2022/08/27 07:09:24;;;;;;;19.63;10.10;;;25.20;1.00;;;26.97;46.26;99237.50;5022482;28;119292;-74
2022/08/27 07:11:53;;;;;;;15.27;9.95;;;25.40;1.00;;;27.12;45.02;99238.75;5024275;28;116291;-73
2022/08/27 07:14:22;;;;;;;16.20;9.88;;;25.50;1.00;;;27.36;44.92;99238.66;5023973;28;129746;-73
2022/08/27 07:16:51;;;;;;;16.35;11.02;;;25.60;1.00;;;27.37;44.63;99229.09;5023684;28;129424;-72
2022/08/27 07:19:21;;;;;;;13.75;10.25;;;25.70;1.00;;;27.61;44.76;99227.75;5022917;28;118868;-74
2022/08/27 07:21:50;;;;;;;13.63;9.35;;;25.90;1.00;;;27.81;43.84;99226.84;5025629;28;116209;-71
2022/08/27 07:24:19;;;;;;;20.05;10.32;;;26.00;1.00;;;27.86;43.28;99234.72;5023212;28;130723;-71
2022/08/27 07:26:48;;;;;;;14.55;10.30;;;26.20;1.00;;;27.85;43.48;99226.78;5023092;28;129653;-73
2022/08/27 07:29:16;;;;;;;13.93;9.18;;;26.30;1.00;;;28.01;42.45;99228.81;5023399;28;118553;-73
2022/08/27 07:31:44;;;;;;;14.10;9.52;;;26.50;1.00;;;28.13;41.49;99228.09;5023545;28;115280;-72
2022/08/27 07:34:13;;;;;;;13.32;9.13;;;26.50;1.00;;;28.18;40.19;99230.34;5022331;28;130728;-73
2022/08/27 07:36:43;;;;;;;12.95;9.10;;;26.60;1.00;;;28.40;40.94;99227.75;5023444;28;129512;-71
2022/08/27 07:39:12;;;;;;;13.20;8.23;;;26.80;1.00;;;28.66;38.99;99234.25;5023774;28;119231;-71
2022/08/27 07:44:26;;;;;;;12.18;8.48;;;27.10;1.00;;;28.93;37.86;99230.31;5023917;28;128839;-72
2022/08/27 07:46:57;;;;;;;15.15;8.48;;;27.20;1.00;;;28.75;37.39;99236.41;5022612;28;129911;-75
2022/08/27 07:49:28;;;;;;;14.65;8.98;;;27.20;1.00;;;28.57;37.76;99242.47;5025146;28;118457;-72
2022/08/27 07:51:58;;;;;;;13.35;8.43;;;27.10;1.00;;;28.61;38.15;99237.59;5023443;28;115548;-72
2022/08/27 07:54:27;;;;;;;13.05;8.52;;;27.10;1.00;;;28.98;38.46;99238.13;5022625;28;129711;-71
2022/08/27 07:56:57;;;;;;;14.07;8.20;;;27.40;1.00;;;28.89;37.27;99240.00;5024607;28;129175;-75
2022/08/27 07:59:27;;;;;;;12.82;8.20;;;27.50;1.00;;;28.76;37.25;99243.56;5023185;28;119480;-71
2022/08/27 08:01:56;;;;;;;11.18;8.48;;;27.30;1.00;;;28.80;37.73;99237.88;5023994;28;119006;-75
2022/08/27 08:04:26;;;;;;;11.00;8.40;;;27.40;1.00;;;29.21;37.84;99244.69;5021433;28;131253;-74
2022/08/27 08:06:55;;;;;;;13.30;8.27;;;27.60;1.00;;;29.50;37.75;99235.41;5021066;28;130041;-74
2022/08/27 08:09:25;;;;;;;12.85;9.13;;;27.70;1.00;;;29.40;37.12;99240.91;5020175;28;122697;-73
2022/08/27 08:11:54;;;;;;;15.57;9.65;;;27.70;1.00;;;29.45;37.08;99236.78;5021444;28;122160;-75
2022/08/27 08:14:22;;;;;;;13.35;9.30;;;27.70;1.00;;;29.67;37.85;99236.88;5006245;28;128911;-73
2022/08/27 08:16:51;;;;;;;13.27;9.63;;;27.90;1.00;;;29.77;37.57;99241.31;5021074;28;129907;-72
2022/08/27 08:19:20;;;;;;;16.65;9.55;;;27.90;1.00;;;30.02;37.70;99234.16;5021453;28;119860;-71
2022/08/27 08:21:49;;;;;;;14.13;9.77;;;28.00;1.00;;;29.98;36.67;99243.88;5023292;28;119392;-72
2022/08/27 08:24:18;;;;;;;13.32;9.63;;;28.20;1.00;;;30.25;36.61;99238.56;5021023;28;130615;-73
2022/08/27 08:26:48;;;;;;;14.43;9.20;;;28.40;1.00;;;30.22;36.28;99235.91;5021386;28;129287;-73
2022/08/27 08:29:17;;;;;;;13.20;10.00;;;28.40;1.00;;;29.71;37.07;99231.16;5021352;28;119548;-71
2022/08/27 08:31:47;;;;;;;13.80;10.20;;;28.20;1.00;;;30.13;36.64;99233.00;5021184;28;119519;-70
2022/08/27 08:34:15;;;;;;;12.27;9.23;;;28.20;1.00;;;30.39;36.50;99217.72;5019666;28;129969;-71
2022/08/27 08:36:44;;;;;;;11.10;8.65;;;28.50;1.00;;;30.42;36.38;99210.44;5020527;28;129510;-74
2022/08/27 08:39:12;;;;;;;17.13;10.10;;;28.50;1.00;;;30.57;35.64;99213.47;5021225;28;119520;-73
2022/08/27 08:41:44;;;;;;;12.70;9.02;;;28.70;1.00;;;30.65;36.25;99211.97;5022836;28;119006;-73
2022/08/27 08:44:24;;;;;;;14.95;9.10;;;28.80;1.00;;;30.90;35.35;99215.88;5022747;27;130227;-71
2022/08/27 08:46:56;;;;;;;13.95;8.40;;;28.90;1.00;;;30.97;33.97;99221.25;5020955;28;129955;-70
2022/08/27 08:49:39;;;;;;;12.32;8.73;;;28.90;1.00;;;31.14;33.86;99219.78;5021040;28;119631;-73
2022/08/27 08:52:19;;;;;;;15.07;8.70;;;29.00;1.00;;;31.30;34.07;99215.16;5021480;28;119475;-72
2022/08/27 08:54:49;;;;;;;12.40;7.80;;;29.10;1.00;;;31.46;33.11;99222.53;5020415;28;130131;-70
2022/08/27 08:57:27;;;;;;;13.88;8.70;;;29.20;1.00;;;31.06;33.26;99217.72;5020454;28;129046;-71
2022/08/27 09:00:02;;;;;;;15.65;8.55;;;29.10;1.00;;;30.82;33.16;99213.34;5021407;28;121888;-72
2022/08/27 09:02:31;;;;;;;;;;;29.20;1.00;;;30.36;33.73;99213.00;5021227;28;122447;-72
2022/08/27 09:05:04;;;;;;;14.35;8.95;;;29.00;1.00;;;30.85;34.67;99220.03;5020304;28;130366;-71
2022/08/27 09:07:44;;;;;;;14.07;8.55;;;29.10;1.00;;;30.79;33.40;99221.88;5020253;28;130043;-72
2022/08/27 09:10:22;;;;;;;13.90;8.50;;;29.20;1.00;;;31.13;33.60;99218.19;5022424;28;119217;-74
2022/08/27 09:12:57;;;;;;;15.75;8.30;;;29.50;1.00;;;31.51;32.55;99219.94;5022539;28;118571;-71
2022/08/27 09:15:33;;;;;;;11.38;7.95;;;29.60;1.00;;;31.59;30.38;99214.84;5019947;28;129890;-71
2022/08/27 09:18:11;;;;;;;13.35;7.50;;;29.60;1.00;;;31.71;29.88;99227.16;5020592;28;129632;-73
2022/08/27 09:20:43;;;;;;;12.60;8.40;;;29.80;1.00;;;31.92;30.03;99219.91;5020852;28;119920;-72
2022/08/27 09:23:21;;;;;;;10.90;7.72;;;30.00;1.00;;;32.00;30.55;99214.75;5020294;28;119618;-73
2022/08/27 09:25:50;;;;;;;12.60;7.65;;;29.70;1.00;;;32.14;29.96;99208.56;5018875;28;129924;-72
2022/08/27 09:31:16;;;;;;;11.85;7.20;;;30.10;1.00;;;32.31;27.18;99211.06;5020566;28;119651;-70
2022/08/27 09:33:45;;;;;;;11.13;6.90;;;30.10;1.00;;;32.29;26.90;99207.94;5020161;28;119618;-71
2022/08/27 09:36:17;;;;;;;17.15;6.75;;;30.20;1.00;;;32.42;27.83;99205.75;5019791;28;130275;-76
2022/08/27 09:38:56;;;;;;;8.88;6.00;;;30.20;1.00;;;32.56;26.70;99216.34;5018504;28;129732;-76
2022/08/27 09:41:30;;;;;;;8.82;6.43;;;30.40;1.00;;;32.56;26.32;99210.72;5020257;28;120045;-72
2022/08/27 09:44:01;;;;;;;9.77;6.63;;;30.40;1.00;;;32.51;26.99;99208.56;5020192;28;119586;-72
2022/08/27 09:46:31;;;;;;;11.98;6.00;;;30.40;1.00;;;32.48;26.39;99214.34;5019596;28;130563;-71
2022/08/27 09:49:12;;;;;;;8.88;6.15;;;30.30;1.00;;;32.60;26.26;99211.38;5018431;28;130037;-75
2022/08/27 09:51:43;;;;;;;11.90;6.30;;;30.40;1.00;;;32.50;25.88;99207.00;5019048;28;122195;-71
2022/08/27 09:54:24;;;;;;;10.18;5.95;;;30.40;1.00;;;32.73;26.90;99207.63;5019948;28;122265;-72
2022/08/27 09:56:53;;;;;;;13.60;6.93;;;30.40;1.00;;;32.84;26.52;99210.72;5018730;28;129889;-72
2022/08/27 09:59:26;;;;;;;13.10;6.68;;;30.50;1.00;;;32.97;25.45;99207.72;5020612;28;129564;-72
2022/08/27 10:02:03;;;;;;;11.63;6.55;;;30.70;1.00;;;32.80;25.56;99210.09;5019713;28;120543;-71
2022/08/27 10:04:38;;;;;;;10.82;6.40;;;30.80;1.00;;;33.06;25.70;99206.91;5019809;28;119733;-71
2022/08/27 10:07:41;;;;;;;8.55;6.25;;;30.90;1.00;;;33.20;26.47;99211.88;5019487;28;129987;-73
2022/08/27 10:10:16;;;;;;;11.30;6.60;;;30.80;1.00;;;33.10;25.21;99207.53;5020055;28;129367;-71
2022/08/27 10:12:57;;;;;;;13.70;6.57;;;30.90;1.00;;;32.76;24.51;99201.84;5019548;28;119446;-72
2022/08/27 10:15:31;;;;;;;10.43;6.18;;;30.80;1.00;;;32.54;25.91;99202.00;5019577;28;120026;-74
2022/08/27 10:18:09;;;;;;;10.90;6.70;;;30.70;1.00;;;32.83;25.51;99211.19;5017878;28;129783;-71
2022/08/27 10:20:52;;;;;;;10.13;5.95;;;30.80;1.00;;;33.12;25.38;99199.41;5019121;28;129344;-70
2022/08/27 10:23:31;;;;;;;12.18;6.50;;;30.80;1.00;;;33.08;25.15;99198.78;5019549;28;119756;-71
2022/08/27 10:26:09;;;;;;;8.93;5.57;;;31.00;1.00;;;33.10;25.20;99190.69;5019540;28;119479;-69
2022/08/27 10:28:59;;;;;;;9.50;5.72;;;31.00;1.00;;;32.93;23.95;99196.66;5018980;28;129846;-72
2022/08/27 10:31:37;;;;;;;12.63;7.00;;;31.00;1.00;;;32.72;25.23;99200.44;5018998;28;129301;-74